sensor_id;sensor_type;location;lat;lon;timestamp;temperature;humidity
10441;DHT22;5268;49.346;9.522;2023-03-11T04:06:42;1.80;99.90
10441;DHT22;5268;49.346;9.522;2023-03-11T04:11:44;1.80;99.90
10441;DHT22;5268;49.346;9.522;2023-03-11T04:16:47;1.80;99.90
10441;DHT22;5268;49.346;9.522;2023-03-11T04:21:50;1.80;99.90
10441;DHT22;5268;49.346;9.522;2023-03-11T04:26:52;1.80;99.90
10441;DHT22;5268;49.346;9.522;2023-03-11T04:31:54;1.80;99.90
10441;DHT22;5268;49.346;9.522;2023-03-11T04:36:57;1.80;99.90
10441;DHT22;5268;49.346;9.522;2023-03-11T04:41:59;1.70;99.90
10441;DHT22;5268;49.346;9.522;2023-03-11T04:47:01;1.80;99.90
10441;DHT22;5268;49.346;9.522;2023-03-11T04:52:05;1.70;99.90
10441;DHT22;5268;49.346;9.522;2023-03-11T04:57:07;1.80;99.90
10441;DHT22;5268;49.346;9.522;2023-03-11T05:02:09;1.80;99.90
10441;DHT22;5268;49.346;9.522;2023-03-11T05:07:13;1.80;99.90
10441;DHT22;5268;49.346;9.522;2023-03-11T05:12:15;1.80;99.90
10441;DHT22;5268;49.346;9.522;2023-03-11T05:17:17;1.80;99.90
10441;DHT22;5268;49.346;9.522;2023-03-11T05:22:22;1.80;99.90
10441;DHT22;5268;49.346;9.522;2023-03-11T05:27:24;1.80;99.90
10441;DHT22;5268;49.346;9.522;2023-03-11T05:32:26;1.80;99.90
10441;DHT22;5268;49.346;9.522;2023-03-11T05:37:31;1.90;99.90
10441;DHT22;5268;49.346;9.522;2023-03-11T05:42:33;1.90;99.90
10441;DHT22;5268;49.346;9.522;2023-03-11T05:47:35;1.90;99.90
10441;DHT22;5268;49.346;9.522;2023-03-11T05:52:39;1.90;99.90
10441;DHT22;5268;49.346;9.522;2023-03-11T05:57:41;1.90;99.90
10441;DHT22;5268;49.346;9.522;2023-03-11T06:02:43;1.90;99.90
10441;DHT22;5268;49.346;9.522;2023-03-11T06:07:46;1.90;99.90
10441;DHT22;5268;49.346;9.522;2023-03-11T06:12:48;1.90;99.90
10441;DHT22;5268;49.346;9.522;2023-03-11T06:17:50;1.90;99.90
10441;DHT22;5268;49.346;9.522;2023-03-11T06:22:54;1.90;99.90
10441;DHT22;5268;49.346;9.522;2023-03-11T06:27:56;1.90;99.90
10441;DHT22;5268;49.346;9.522;2023-03-11T06:32:58;1.90;99.90
10441;DHT22;5268;49.346;9.522;2023-03-11T06:38:01;2.00;99.90
10441;DHT22;5268;49.346;9.522;2023-03-11T06:43:03;2.00;99.90
10441;DHT22;5268;49.346;9.522;2023-03-11T06:48:05;2.10;99.90
10441;DHT22;5268;49.346;9.522;2023-03-11T06:53:08;2.00;99.90
10441;DHT22;5268;49.346;9.522;2023-03-11T06:58:10;2.10;99.90
10441;DHT22;5268;49.346;9.522;2023-03-11T07:03:12;2.20;99.90
10441;DHT22;5268;49.346;9.522;2023-03-11T07:08:16;2.40;99.90
10441;DHT22;5268;49.346;9.522;2023-03-11T07:13:17;2.40;99.90
10441;DHT22;5268;49.346;9.522;2023-03-11T07:18:19;2.50;99.90
10441;DHT22;5268;49.346;9.522;2023-03-11T07:23:23;2.60;99.90
10441;DHT22;5268;49.346;9.522;2023-03-11T07:28:26;2.70;99.90
10441;DHT22;5268;49.346;9.522;2023-03-11T07:33:29;2.80;99.90
10441;DHT22;5268;49.346;9.522;2023-03-11T07:38:33;2.90;99.90
10441;DHT22;5268;49.346;9.522;2023-03-11T07:43:35;2.90;99.90
10441;DHT22;5268;49.346;9.522;2023-03-11T07:48:38;2.80;99.90
10441;DHT22;5268;49.346;9.522;2023-03-11T07:53:42;2.90;99.90
10441;DHT22;5268;49.346;9.522;2023-03-11T07:58:45;3.00;99.90
10441;DHT22;5268;49.346;9.522;2023-03-11T08:03:49;3.00;99.90
10441;DHT22;5268;49.346;9.522;2023-03-11T08:08:54;3.00;99.90
10441;DHT22;5268;49.346;9.522;2023-03-11T08:13:56;3.00;99.90
10441;DHT22;5268;49.346;9.522;2023-03-11T08:18:58;3.10;99.90
10441;DHT22;5268;49.346;9.522;2023-03-11T08:24:02;3.10;99.90
10441;DHT22;5268;49.346;9.522;2023-03-11T08:29:04;3.40;99.90
10441;DHT22;5268;49.346;9.522;2023-03-11T08:34:09;3.40;99.90
10441;DHT22;5268;49.346;9.522;2023-03-11T08:39:12;3.50;99.90
10441;DHT22;5268;49.346;9.522;2023-03-11T08:44:14;3.50;99.90
10441;DHT22;5268;49.346;9.522;2023-03-11T08:49:16;3.50;99.90
10441;DHT22;5268;49.346;9.522;2023-03-11T08:54:20;3.50;99.90
10441;DHT22;5268;49.346;9.522;2023-03-11T08:59:22;3.50;99.90
10441;DHT22;5268;49.346;9.522;2023-03-11T09:04:24;3.50;99.90
10441;DHT22;5268;49.346;9.522;2023-03-11T09:09:28;3.60;99.90
10441;DHT22;5268;49.346;9.522;2023-03-11T09:14:30;3.70;99.90
10441;DHT22;5268;49.346;9.522;2023-03-11T09:19:32;3.70;99.90
10441;DHT22;5268;49.346;9.522;2023-03-11T09:24:35;3.80;99.90
10441;DHT22;5268;49.346;9.522;2023-03-11T09:29:37;3.90;99.90
10441;DHT22;5268;49.346;9.522;2023-03-11T09:34:40;3.90;99.90
10441;DHT22;5268;49.346;9.522;2023-03-11T09:39:43;4.00;99.90
10441;DHT22;5268;49.346;9.522;2023-03-11T09:44:50;4.10;99.90
10441;DHT22;5268;49.346;9.522;2023-03-11T09:55:43;4.20;99.90
10441;DHT22;5268;49.346;9.522;2023-03-11T10:00:46;4.30;99.90
10441;DHT22;5268;49.346;9.522;2023-03-11T10:05:50;4.50;99.90
10441;DHT22;5268;49.346;9.522;2023-03-11T10:10:58;4.60;99.90
10441;DHT22;5268;49.346;9.522;2023-03-11T10:16:08;4.60;99.90
10441;DHT22;5268;49.346;9.522;2023-03-11T10:21:19;4.60;99.90
10441;DHT22;5268;49.346;9.522;2023-03-11T10:26:32;4.50;99.90
10441;DHT22;5268;49.346;9.522;2023-03-11T10:31:39;4.40;99.90
10441;DHT22;5268;49.346;9.522;2023-03-11T10:36:50;4.40;99.90
10441;DHT22;5268;49.346;9.522;2023-03-11T10:41:56;4.50;99.90
10441;DHT22;5268;49.346;9.522;2023-03-11T10:47:00;4.70;99.90
10441;DHT22;5268;49.346;9.522;2023-03-11T10:52:02;4.90;99.90
10441;DHT22;5268;49.346;9.522;2023-03-11T10:57:20;5.30;99.90
10441;DHT22;5268;49.346;9.522;2023-03-11T11:02:25;5.80;99.90
10441;DHT22;5268;49.346;9.522;2023-03-11T11:07:29;6.10;99.90
10441;DHT22;5268;49.346;9.522;2023-03-11T11:12:34;6.10;99.90
10441;DHT22;5268;49.346;9.522;2023-03-11T11:17:36;6.10;99.90
10441;DHT22;5268;49.346;9.522;2023-03-11T11:22:47;6.00;99.90
10441;DHT22;5268;49.346;9.522;2023-03-11T11:27:55;5.90;99.90
10441;DHT22;5268;49.346;9.522;2023-03-11T11:33:20;5.80;99.90
10441;DHT22;5268;49.346;9.522;2023-03-11T11:38:26;5.70;99.90
10441;DHT22;5268;49.346;9.522;2023-03-11T11:43:47;5.70;99.90
10441;DHT22;5268;49.346;9.522;2023-03-11T11:48:59;5.70;99.90
10441;DHT22;5268;49.346;9.522;2023-03-11T11:54:12;6.00;99.90
10441;DHT22;5268;49.346;9.522;2023-03-11T11:59:19;6.00;99.90
10441;DHT22;5268;49.346;9.522;2023-03-11T12:04:47;6.00;99.90
10441;DHT22;5268;49.346;9.522;2023-03-11T12:09:56;6.00;99.90
10441;DHT22;5268;49.346;9.522;2023-03-11T12:15:07;6.00;99.90
10441;DHT22;5268;49.346;9.522;2023-03-11T12:20:14;6.00;99.90
10441;DHT22;5268;49.346;9.522;2023-03-11T12:25:28;6.00;99.90
10441;DHT22;5268;49.346;9.522;2023-03-11T12:30:35;6.00;99.90
10441;DHT22;5268;49.346;9.522;2023-03-11T12:35:39;6.00;99.90
10441;DHT22;5268;49.346;9.522;2023-03-11T12:40:55;6.00;99.90
10441;DHT22;5268;49.346;9.522;2023-03-11T12:46:00;6.10;99.90
10441;DHT22;5268;49.346;9.522;2023-03-11T12:51:02;6.10;99.90
10441;DHT22;5268;49.346;9.522;2023-03-11T12:56:12;6.10;99.90
10441;DHT22;5268;49.346;9.522;2023-03-11T13:01:32;6.10;99.90
10441;DHT22;5268;49.346;9.522;2023-03-11T13:06:55;6.10;99.90
10441;DHT22;5268;49.346;9.522;2023-03-11T13:12:01;6.10;99.90
10441;DHT22;5268;49.346;9.522;2023-03-11T13:17:25;6.10;99.90
10441;DHT22;5268;49.346;9.522;2023-03-11T13:28:44;6.10;99.90
10441;DHT22;5268;49.346;9.522;2023-03-11T13:33:54;6.00;99.90
10441;DHT22;5268;49.346;9.522;2023-03-11T13:39:10;6.00;99.90
10441;DHT22;5268;49.346;9.522;2023-03-11T13:44:24;6.10;99.90
10441;DHT22;5268;49.346;9.522;2023-03-11T13:49:34;6.10;99.90
10441;DHT22;5268;49.346;9.522;2023-03-11T13:54:42;6.30;99.90
10441;DHT22;5268;49.346;9.522;2023-03-11T13:59:50;6.30;99.90
10441;DHT22;5268;49.346;9.522;2023-03-11T14:04:56;6.30;99.90
10441;DHT22;5268;49.346;9.522;2023-03-11T14:10:26;6.30;99.90
10441;DHT22;5268;49.346;9.522;2023-03-11T14:15:31;6.30;99.90
10441;DHT22;5268;49.346;9.522;2023-03-11T14:20:39;6.30;99.90
10441;DHT22;5268;49.346;9.522;2023-03-11T14:25:41;6.20;99.90
10441;DHT22;5268;49.346;9.522;2023-03-11T14:30:54;6.20;99.90
10441;DHT22;5268;49.346;9.522;2023-03-11T14:36:00;6.10;99.90
10441;DHT22;5268;49.346;9.522;2023-03-11T14:41:05;6.10;99.90
10441;DHT22;5268;49.346;9.522;2023-03-11T14:46:17;5.90;99.90
10441;DHT22;5268;49.346;9.522;2023-03-11T14:51:26;5.80;99.90
10441;DHT22;5268;49.346;9.522;2023-03-11T14:56:36;5.90;99.90
10441;DHT22;5268;49.346;9.522;2023-03-11T15:01:41;6.00;99.90
10441;DHT22;5268;49.346;9.522;2023-03-11T15:06:45;6.00;99.90
10441;DHT22;5268;49.346;9.522;2023-03-11T15:11:48;6.10;99.90
10441;DHT22;5268;49.346;9.522;2023-03-11T15:16:52;6.20;99.90
10441;DHT22;5268;49.346;9.522;2023-03-11T15:21:58;6.20;99.90
10441;DHT22;5268;49.346;9.522;2023-03-11T15:27:03;6.20;99.90
10441;DHT22;5268;49.346;9.522;2023-03-11T15:32:24;6.30;99.90
10441;DHT22;5268;49.346;9.522;2023-03-11T15:37:28;6.20;99.90
10441;DHT22;5268;49.346;9.522;2023-03-11T15:42:30;6.20;99.90
10441;DHT22;5268;49.346;9.522;2023-03-11T15:47:32;6.20;99.90
10441;DHT22;5268;49.346;9.522;2023-03-11T15:52:36;6.20;99.90
10441;DHT22;5268;49.346;9.522;2023-03-11T15:57:39;6.30;99.90
10441;DHT22;5268;49.346;9.522;2023-03-11T16:02:41;6.30;99.90
10441;DHT22;5268;49.346;9.522;2023-03-11T16:07:45;6.30;99.90
10441;DHT22;5268;49.346;9.522;2023-03-11T16:12:47;6.30;99.90
10441;DHT22;5268;49.346;9.522;2023-03-11T16:17:50;6.30;99.90
10441;DHT22;5268;49.346;9.522;2023-03-11T16:22:55;6.20;99.90
10441;DHT22;5268;49.346;9.522;2023-03-11T16:27:59;6.10;99.90
10441;DHT22;5268;49.346;9.522;2023-03-11T16:33:01;6.10;99.90
10441;DHT22;5268;49.346;9.522;2023-03-11T16:38:06;6.00;99.90
10441;DHT22;5268;49.346;9.522;2023-03-11T16:43:09;6.00;99.90
10441;DHT22;5268;49.346;9.522;2023-03-11T16:48:12;5.90;99.90
10441;DHT22;5268;49.346;9.522;2023-03-11T16:53:15;5.90;99.90
10441;DHT22;5268;49.346;9.522;2023-03-11T16:58:18;5.60;99.90
10441;DHT22;5268;49.346;9.522;2023-03-11T17:03:20;5.50;99.90
10441;DHT22;5268;49.346;9.522;2023-03-11T17:08:23;5.40;99.90
10441;DHT22;5268;49.346;9.522;2023-03-11T17:13:25;5.20;99.90
10441;DHT22;5268;49.346;9.522;2023-03-11T17:18:28;5.10;99.90
10441;DHT22;5268;49.346;9.522;2023-03-11T17:23:31;4.90;99.90
10441;DHT22;5268;49.346;9.522;2023-03-11T17:28:33;4.70;99.90
10441;DHT22;5268;49.346;9.522;2023-03-11T17:33:35;4.60;99.90
10441;DHT22;5268;49.346;9.522;2023-03-11T17:38:39;4.50;99.90
10441;DHT22;5268;49.346;9.522;2023-03-11T17:43:42;4.40;99.90
10441;DHT22;5268;49.346;9.522;2023-03-11T17:48:45;4.30;99.90
10441;DHT22;5268;49.346;9.522;2023-03-11T17:53:49;4.20;99.90
10441;DHT22;5268;49.346;9.522;2023-03-11T17:58:51;4.10;99.90
10441;DHT22;5268;49.346;9.522;2023-03-11T18:03:54;4.00;99.90
10441;DHT22;5268;49.346;9.522;2023-03-11T18:08:58;3.90;99.90
10441;DHT22;5268;49.346;9.522;2023-03-11T18:14:00;3.80;99.90
10441;DHT22;5268;49.346;9.522;2023-03-11T18:19:02;3.70;99.90
10441;DHT22;5268;49.346;9.522;2023-03-11T18:24:06;3.60;99.90
10441;DHT22;5268;49.346;9.522;2023-03-11T18:29:08;3.50;99.90
10441;DHT22;5268;49.346;9.522;2023-03-11T18:34:10;3.40;99.90
10441;DHT22;5268;49.346;9.522;2023-03-11T18:39:15;3.30;99.90
10441;DHT22;5268;49.346;9.522;2023-03-11T18:44:17;3.20;99.90
10441;DHT22;5268;49.346;9.522;2023-03-11T18:49:20;3.10;99.90
10441;DHT22;5268;49.346;9.522;2023-03-11T18:54:23;3.00;99.90
10441;DHT22;5268;49.346;9.522;2023-03-11T18:59:25;3.00;99.90
10441;DHT22;5268;49.346;9.522;2023-03-11T19:04:27;2.90;99.90
10441;DHT22;5268;49.346;9.522;2023-03-11T19:09:31;2.80;99.90
10441;DHT22;5268;49.346;9.522;2023-03-11T19:14:33;2.70;99.90
10441;DHT22;5268;49.346;9.522;2023-03-11T19:19:35;2.60;99.90
10441;DHT22;5268;49.346;9.522;2023-03-11T19:24:39;2.60;99.90
10441;DHT22;5268;49.346;9.522;2023-03-11T19:29:41;2.40;99.90
10441;DHT22;5268;49.346;9.522;2023-03-11T19:34:43;2.40;99.90
10441;DHT22;5268;49.346;9.522;2023-03-11T19:39:46;2.30;99.90
10441;DHT22;5268;49.346;9.522;2023-03-11T19:44:48;2.20;99.90
10441;DHT22;5268;49.346;9.522;2023-03-11T19:49:51;2.10;99.90
10441;DHT22;5268;49.346;9.522;2023-03-11T19:54:54;2.10;99.90
10441;DHT22;5268;49.346;9.522;2023-03-11T19:59:56;1.90;99.90
10441;DHT22;5268;49.346;9.522;2023-03-11T20:04:59;1.80;99.90
10441;DHT22;5268;49.346;9.522;2023-03-11T20:10:02;1.80;99.90
10441;DHT22;5268;49.346;9.522;2023-03-11T20:15:05;1.70;99.90
10441;DHT22;5268;49.346;9.522;2023-03-11T20:20:09;1.60;99.90
10441;DHT22;5268;49.346;9.522;2023-03-11T20:25:12;1.60;99.90
10441;DHT22;5268;49.346;9.522;2023-03-11T20:30:15;1.60;99.90
10441;DHT22;5268;49.346;9.522;2023-03-11T20:35:20;1.50;99.90
10441;DHT22;5268;49.346;9.522;2023-03-11T20:40:23;1.50;99.90
10441;DHT22;5268;49.346;9.522;2023-03-11T20:45:25;1.40;99.90
10441;DHT22;5268;49.346;9.522;2023-03-11T20:50:27;1.40;99.90
10441;DHT22;5268;49.346;9.522;2023-03-11T20:55:31;1.30;99.90
10441;DHT22;5268;49.346;9.522;2023-03-11T21:00:34;1.30;99.90
10441;DHT22;5268;49.346;9.522;2023-03-11T21:05:36;1.30;99.90
10441;DHT22;5268;49.346;9.522;2023-03-11T21:10:40;1.20;99.90
10441;DHT22;5268;49.346;9.522;2023-03-11T21:15:42;1.20;99.90
10441;DHT22;5268;49.346;9.522;2023-03-11T21:20:44;1.10;99.90
10441;DHT22;5268;49.346;9.522;2023-03-11T21:25:48;1.10;99.90
10441;DHT22;5268;49.346;9.522;2023-03-11T21:30:56;1.10;99.90
10441;DHT22;5268;49.346;9.522;2023-03-11T21:35:59;1.00;99.90
10441;DHT22;5268;49.346;9.522;2023-03-11T21:41:08;1.00;99.90
10441;DHT22;5268;49.346;9.522;2023-03-11T21:46:13;1.00;99.90
10441;DHT22;5268;49.346;9.522;2023-03-11T21:51:16;0.90;99.90
10441;DHT22;5268;49.346;9.522;2023-03-11T21:56:20;0.90;99.90
10441;DHT22;5268;49.346;9.522;2023-03-11T22:01:23;0.80;99.90
10441;DHT22;5268;49.346;9.522;2023-03-11T22:06:24;0.80;99.90
10441;DHT22;5268;49.346;9.522;2023-03-11T22:11:28;0.80;99.90
10441;DHT22;5268;49.346;9.522;2023-03-11T22:16:30;0.70;99.90
10441;DHT22;5268;49.346;9.522;2023-03-11T22:21:32;0.70;99.90
10441;DHT22;5268;49.346;9.522;2023-03-11T22:26:36;0.60;99.90
10441;DHT22;5268;49.346;9.522;2023-03-11T22:31:38;0.70;99.90
10441;DHT22;5268;49.346;9.522;2023-03-11T22:36:40;0.50;99.90
10441;DHT22;5268;49.346;9.522;2023-03-11T22:41:43;0.50;99.90
10441;DHT22;5268;49.346;9.522;2023-03-11T22:46:45;0.50;99.90
10441;DHT22;5268;49.346;9.522;2023-03-11T22:51:47;0.50;99.90
